createdAt,value
2022-08-26T00:01:17.669Z,61.44
2022-08-26T00:03:54.794Z,61.72
2022-08-26T00:06:25.347Z,61.90
2022-08-26T00:08:55.805Z,61.98
2022-08-26T00:11:28.980Z,62.54
2022-08-26T00:14:00.375Z,62.80
2022-08-26T00:16:32.265Z,63.07
2022-08-26T00:19:02.838Z,63.29
2022-08-26T00:21:33.080Z,63.59
2022-08-26T00:24:04.454Z,63.80
2022-08-26T00:26:37.682Z,63.93
2022-08-26T00:29:08.059Z,64.00
2022-08-26T00:31:39.940Z,63.89
2022-08-26T00:34:12.048Z,63.99
2022-08-26T00:36:42.585Z,64.03
2022-08-26T00:39:13.762Z,64.40
2022-08-26T00:41:47.434Z,64.25
2022-08-26T00:44:17.733Z,64.54
2022-08-26T00:46:51.960Z,64.39
2022-08-26T00:49:27.515Z,64.49
2022-08-26T00:52:03.718Z,64.78
2022-08-26T00:54:45.346Z,65.36
2022-08-26T00:57:20.063Z,65.09
2022-08-26T00:59:54.491Z,65.03
2022-08-26T01:02:25.006Z,64.71
2022-08-26T01:04:58.509Z,64.97
2022-08-26T01:07:30.277Z,64.78
2022-08-26T01:10:03.086Z,64.71
2022-08-26T01:12:42.244Z,64.69
2022-08-26T01:15:16.425Z,64.60
2022-08-26T01:17:47.477Z,64.81
2022-08-26T01:20:28.765Z,65.12
2022-08-26T01:23:03.896Z,64.64
2022-08-26T01:25:36.792Z,64.87
2022-08-26T01:28:10.587Z,65.11
2022-08-26T01:30:41.585Z,65.19
2022-08-26T01:33:15.485Z,65.00
2022-08-26T01:35:46.248Z,64.87
2022-08-26T01:38:19.918Z,64.25
2022-08-26T01:40:50.146Z,63.35
2022-08-26T01:43:25.281Z,62.63
2022-08-26T01:45:57.296Z,61.91
2022-08-26T01:48:30.411Z,61.41
2022-08-26T01:51:02.066Z,60.68
2022-08-26T01:53:35.220Z,60.49
2022-08-26T01:56:07.162Z,60.20
2022-08-26T01:58:41.389Z,60.33
2022-08-26T02:01:13.230Z,59.89
2022-08-26T02:03:51.732Z,59.97
2022-08-26T02:06:22.555Z,60.09
2022-08-26T02:08:59.197Z,59.81
2022-08-26T02:11:29.378Z,59.87
2022-08-26T02:14:03.432Z,59.54
2022-08-26T02:16:37.703Z,59.72
2022-08-26T02:19:09.583Z,59.86
2022-08-26T02:21:51.255Z,59.35
2022-08-26T02:24:27.869Z,59.33
2022-08-26T02:27:12.994Z,59.19
2022-08-26T02:29:47.825Z,59.38
2022-08-26T02:32:20.429Z,59.25
2022-08-26T02:34:50.610Z,59.68
2022-08-26T02:37:20.905Z,59.91
2022-08-26T02:39:55.926Z,59.88
2022-08-26T02:42:27.291Z,60.47
2022-08-26T02:44:57.456Z,60.77
2022-08-26T02:47:29.247Z,61.47
2022-08-26T02:50:03.108Z,60.74
2022-08-26T02:52:33.556Z,61.46
2022-08-26T02:55:08.175Z,61.59
2022-08-26T02:57:38.446Z,61.87
2022-08-26T03:00:12.064Z,62.02
2022-08-26T03:02:42.236Z,62.55
2022-08-26T03:05:14.368Z,62.70
2022-08-26T03:07:46.341Z,63.07
2022-08-26T03:10:19.670Z,63.13
2022-08-26T03:12:50.838Z,63.29
2022-08-26T03:15:22.910Z,63.08
2022-08-26T03:17:53.411Z,63.18
2022-08-26T03:20:24.036Z,63.16
2022-08-26T03:22:56.235Z,63.13
2022-08-26T03:25:29.964Z,63.30
2022-08-26T03:27:59.871Z,63.29
2022-08-26T03:30:44.658Z,63.20
2022-08-26T03:33:16.939Z,63.37
2022-08-26T03:35:50.491Z,63.55
2022-08-26T03:38:22.195Z,63.62
2022-08-26T03:40:55.056Z,64.06
2022-08-26T03:43:26.959Z,63.88
2022-08-26T03:45:57.228Z,64.27
2022-08-26T03:48:27.469Z,64.04
2022-08-26T03:50:57.661Z,64.08
2022-08-26T03:53:28.151Z,64.23
2022-08-26T03:56:00.956Z,64.20
2022-08-26T03:58:32.264Z,64.49
2022-08-26T04:01:02.547Z,64.53
2022-08-26T04:03:45.798Z,64.87
2022-08-26T04:06:17.827Z,64.11
2022-08-26T04:08:48.087Z,63.70
2022-08-26T04:11:26.964Z,63.53
2022-08-26T04:13:57.492Z,63.17
2022-08-26T04:16:31.895Z,62.96
2022-08-26T04:19:02.380Z,62.17
2022-08-26T04:21:32.628Z,61.75
2022-08-26T04:24:03.564Z,62.07
2022-08-26T04:26:39.560Z,61.66
2022-08-26T04:29:16.174Z,61.90
2022-08-26T04:31:47.086Z,61.29
2022-08-26T04:34:19.495Z,60.53
2022-08-26T04:36:49.814Z,60.57
2022-08-26T04:39:20.911Z,60.19
2022-08-26T04:41:57.766Z,60.23
2022-08-26T04:44:30.379Z,60.52
2022-08-26T04:47:01.392Z,59.98
2022-08-26T04:49:35.519Z,59.72
2022-08-26T04:52:06.682Z,58.90
2022-08-26T04:54:37.924Z,59.12
2022-08-26T04:57:15.173Z,59.18
2022-08-26T04:59:45.476Z,58.26
2022-08-26T05:02:16.364Z,58.58
2022-08-26T05:04:46.604Z,57.56
2022-08-26T05:07:17.702Z,57.48
2022-08-26T05:09:48.126Z,56.94
2022-08-26T05:12:20.947Z,56.32
2022-08-26T05:14:51.113Z,55.31
2022-08-26T05:17:22.107Z,52.98
2022-08-26T05:19:53.077Z,51.08
2022-08-26T05:22:23.248Z,50.28
2022-08-26T05:24:53.513Z,49.08
2022-08-26T05:27:27.068Z,47.94
2022-08-26T05:30:00.274Z,46.57
2022-08-26T05:32:32.169Z,45.89
2022-08-26T05:35:02.526Z,45.57
2022-08-26T05:37:33.138Z,46.27
2022-08-26T05:40:06.052Z,46.15
2022-08-26T05:42:40.138Z,45.66
2022-08-26T05:45:14.347Z,45.20
2022-08-26T05:47:44.496Z,45.07
2022-08-26T05:50:22.027Z,43.94
2022-08-26T05:52:56.420Z,43.45
2022-08-26T05:55:26.310Z,42.34
2022-08-26T05:57:59.096Z,41.76
2022-08-26T06:00:33.034Z,41.43
2022-08-26T06:03:03.308Z,41.18
2022-08-26T06:05:38.288Z,39.81
2022-08-26T06:08:19.156Z,38.79
2022-08-26T06:10:51.987Z,38.80
2022-08-26T06:13:27.293Z,37.88
2022-08-26T06:16:02.661Z,36.77
2022-08-26T06:18:36.613Z,36.96
2022-08-26T06:21:16.711Z,35.92
2022-08-26T06:24:01.001Z,36.72
2022-08-26T06:26:31.842Z,36.02
2022-08-26T06:29:05.700Z,35.62
2022-08-26T06:31:37.658Z,34.61
2022-08-26T06:34:10.985Z,32.87
2022-08-26T06:36:43.992Z,33.00
2022-08-26T06:39:15.234Z,32.22
2022-08-26T06:41:47.331Z,29.58
2022-08-26T06:44:21.079Z,29.01
2022-08-26T06:46:51.467Z,28.65
2022-08-26T06:49:27.251Z,29.22
2022-08-26T06:51:59.393Z,26.78
2022-08-26T06:54:31.951Z,25.95
2022-08-26T06:57:02.457Z,25.34
2022-08-26T06:59:36.303Z,26.01
2022-08-26T07:02:08.450Z,26.17
2022-08-26T07:04:41.141Z,24.57
2022-08-26T07:07:11.920Z,24.89
2022-08-26T07:09:42.104Z,24.39
2022-08-26T07:12:12.880Z,24.08
2022-08-26T07:14:47.422Z,23.85
2022-08-26T07:17:20.444Z,24.14
2022-08-26T07:19:50.896Z,24.59
2022-08-26T07:22:25.920Z,23.67
2022-08-26T07:24:55.785Z,24.13
2022-08-26T07:27:26.357Z,23.89
2022-08-26T07:30:02.130Z,23.81
2022-08-26T07:32:33.763Z,22.79
2022-08-26T07:35:04.027Z,24.13
2022-08-26T07:37:35.502Z,22.88
2022-08-26T07:40:10.668Z,22.99
2022-08-26T07:42:42.105Z,22.41
2022-08-26T07:45:15.006Z,23.03
2022-08-26T07:47:45.672Z,22.67
2022-08-26T07:50:16.541Z,22.02
2022-08-26T07:52:46.845Z,23.06
2022-08-26T07:55:17.744Z,22.73
2022-08-26T07:57:48.593Z,22.32
2022-08-26T08:00:22.048Z,22.69
2022-08-26T08:02:51.989Z,22.76
2022-08-26T08:05:33.563Z,22.85
2022-08-26T08:08:27.207Z,23.37
2022-08-26T08:10:56.084Z,23.31
2022-08-26T08:13:27.031Z,23.13
2022-08-26T08:16:00.738Z,23.43
2022-08-26T08:18:32.022Z,22.67
2022-08-26T08:21:21.170Z,22.83
2022-08-26T08:23:53.026Z,22.41
2022-08-26T08:26:23.796Z,23.00
2022-08-26T08:28:56.472Z,22.38
2022-08-26T08:34:26.217Z,22.90
2022-08-26T08:36:57.470Z,22.26
2022-08-26T08:39:28.342Z,22.85
2022-08-26T08:42:35.281Z,23.00
2022-08-26T08:45:10.177Z,22.57
2022-08-26T08:47:47.570Z,22.74
2022-08-26T08:50:25.268Z,22.21
2022-08-26T08:53:05.774Z,22.26
2022-08-26T08:55:50.746Z,23.45
2022-08-26T08:58:24.360Z,22.29
2022-08-26T09:01:01.240Z,23.00
2022-08-26T09:03:50.434Z,22.52
2022-08-26T09:06:20.952Z,22.49
2022-08-26T09:08:53.561Z,22.79
2022-08-26T09:11:27.630Z,22.66
2022-08-26T09:14:00.297Z,22.33
2022-08-26T09:16:40.261Z,22.42
2022-08-26T09:19:26.662Z,22.23
2022-08-26T09:22:01.614Z,21.81
2022-08-26T09:24:42.127Z,22.02
2022-08-26T09:27:39.306Z,22.45
2022-08-26T09:30:12.270Z,21.96
2022-08-26T09:32:44.596Z,23.13
2022-08-26T09:35:34.448Z,23.81
2022-08-26T09:38:06.996Z,22.72
2022-08-26T09:40:40.753Z,23.73
2022-08-26T09:43:15.996Z,23.26
2022-08-26T09:45:59.115Z,22.54
2022-08-26T09:48:35.449Z,23.24
2022-08-26T09:51:35.156Z,23.16
2022-08-26T09:54:08.241Z,23.31
2022-08-26T09:56:43.035Z,22.61
2022-08-26T09:59:18.826Z,22.30
2022-08-26T10:01:49.459Z,22.05
2022-08-26T10:04:26.687Z,22.67
2022-08-26T10:07:05.433Z,21.95
2022-08-26T10:09:39.034Z,22.26
2022-08-26T10:12:13.483Z,21.93
2022-08-26T10:14:50.329Z,22.16
2022-08-26T10:17:29.165Z,22.40
2022-08-26T10:20:06.593Z,22.50
2022-08-26T10:23:01.114Z,22.01
2022-08-26T10:25:36.233Z,21.65
2022-08-26T10:28:15.226Z,21.47
2022-08-26T10:30:50.135Z,21.12
2022-08-26T10:33:21.155Z,20.68
2022-08-26T10:35:55.560Z,20.68
2022-08-26T10:38:34.428Z,20.15
2022-08-26T10:41:10.784Z,20.09
2022-08-26T10:43:47.953Z,21.12
2022-08-26T10:46:27.106Z,20.00
2022-08-26T10:49:03.278Z,20.15
2022-08-26T10:51:42.271Z,19.86
2022-08-26T10:54:22.709Z,19.37
2022-08-26T11:03:31.653Z,19.96
2022-08-26T11:06:37.092Z,18.97
2022-08-26T11:37:03.503Z,19.16
2022-08-26T11:39:39.366Z,19.15
2022-08-26T11:42:23.494Z,19.50
2022-08-26T11:44:58.940Z,19.93
2022-08-26T11:47:34.143Z,19.24
2022-08-26T11:50:13.103Z,19.07
2022-08-26T11:52:54.415Z,20.20
2022-08-26T11:55:25.126Z,19.21
2022-08-26T11:58:00.996Z,19.72
2022-08-26T12:00:34.567Z,19.60
2022-08-26T12:03:12.000Z,18.97
2022-08-26T12:05:47.959Z,18.80
2022-08-26T12:08:23.472Z,19.38
2022-08-26T12:11:06.503Z,18.82
2022-08-26T12:13:39.162Z,19.75
2022-08-26T12:16:09.657Z,19.70
2022-08-26T12:18:41.846Z,19.26
2022-08-26T12:21:17.488Z,19.74
2022-08-26T12:23:54.724Z,19.53
2022-08-26T12:26:29.070Z,19.11
2022-08-26T12:29:12.699Z,18.94
2022-08-26T12:31:51.353Z,19.76
2022-08-26T12:34:23.060Z,20.04
2022-08-26T12:39:53.190Z,19.68
2022-08-26T12:42:43.545Z,19.59
2022-08-26T12:45:13.878Z,19.10
2022-08-26T12:47:45.950Z,19.07
2022-08-26T12:50:23.422Z,19.36
2022-08-26T12:53:01.861Z,19.58
2022-08-26T12:55:44.158Z,20.08
2022-08-26T12:58:29.238Z,20.45
2022-08-26T13:01:00.976Z,19.83
2022-08-26T13:03:45.702Z,19.94
2022-08-26T13:06:20.635Z,19.97
2022-08-26T13:08:51.931Z,19.80
2022-08-26T13:11:27.542Z,20.40
2022-08-26T13:14:00.610Z,20.33
2022-08-26T13:16:32.545Z,20.04
2022-08-26T13:19:05.277Z,20.13
2022-08-26T13:21:38.559Z,20.20
2022-08-26T13:24:13.486Z,19.94
2022-08-26T13:26:49.152Z,19.70
2022-08-26T13:29:19.498Z,20.25
2022-08-26T13:31:51.111Z,20.42
2022-08-26T13:34:22.951Z,20.17
2022-08-26T13:36:56.454Z,20.39
2022-08-26T13:39:27.719Z,20.26
2022-08-26T13:42:00.557Z,20.37
2022-08-26T13:44:30.726Z,20.28
2022-08-26T13:47:00.895Z,21.07
2022-08-26T13:49:31.166Z,20.57
2022-08-26T13:52:02.091Z,20.13
2022-08-26T13:54:32.410Z,20.05
2022-08-26T13:57:06.123Z,20.58
2022-08-26T13:59:36.348Z,20.24
2022-08-26T14:02:07.034Z,20.61
2022-08-26T14:04:38.845Z,20.11
2022-08-26T14:07:09.196Z,20.17
2022-08-26T14:09:40.559Z,20.57
2022-08-26T14:12:13.490Z,20.75
2022-08-26T14:14:43.717Z,20.94
2022-08-26T14:17:16.250Z,21.03
2022-08-26T14:19:49.523Z,20.74
2022-08-26T14:22:21.628Z,20.67
2022-08-26T14:24:52.798Z,20.65
2022-08-26T14:27:25.624Z,20.83
2022-08-26T14:29:59.596Z,21.03
2022-08-26T14:32:32.328Z,20.41
2022-08-26T14:35:02.707Z,20.79
2022-08-26T14:37:33.256Z,20.55
2022-08-26T14:40:06.052Z,21.08
2022-08-26T14:42:39.681Z,20.89
2022-08-26T14:45:13.418Z,20.71
2022-08-26T14:47:43.738Z,20.85
2022-08-26T14:50:14.456Z,20.72
2022-08-26T14:52:57.498Z,20.72
2022-08-26T14:55:27.893Z,21.13
2022-08-26T14:58:00.870Z,21.17
2022-08-26T15:00:31.866Z,21.07
2022-08-26T15:03:02.407Z,20.67
2022-08-26T15:05:33.089Z,21.17
2022-08-26T15:08:04.805Z,21.01
2022-08-26T15:10:35.167Z,20.89
2022-08-26T15:13:08.072Z,21.46
2022-08-26T15:15:40.927Z,21.47
2022-08-26T15:18:11.163Z,21.58
2022-08-26T15:20:41.390Z,21.51
2022-08-26T15:23:11.916Z,21.64
2022-08-26T15:25:42.691Z,21.15
2022-08-26T15:28:15.868Z,21.51
2022-08-26T15:30:46.595Z,22.03
2022-08-26T15:33:16.955Z,21.59
2022-08-26T15:35:47.189Z,22.42
2022-08-26T15:38:19.551Z,22.19
2022-08-26T15:40:49.907Z,22.34
2022-08-26T15:43:28.386Z,22.36
2022-08-26T15:46:01.172Z,22.26
2022-08-26T15:48:31.636Z,22.26
2022-08-26T15:51:03.754Z,22.95
2022-08-26T15:53:36.282Z,22.50
2022-08-26T15:56:06.873Z,22.95
2022-08-26T15:58:42.723Z,22.82
2022-08-26T16:01:15.054Z,22.85
2022-08-26T16:03:58.823Z,23.00
2022-08-26T16:06:31.520Z,23.22
2022-08-26T16:09:02.165Z,23.40
2022-08-26T16:11:32.337Z,23.66
2022-08-26T16:14:05.227Z,23.39
2022-08-26T16:16:35.475Z,23.44
2022-08-26T16:19:07.632Z,24.14
2022-08-26T16:21:38.836Z,23.88
2022-08-26T16:24:09.403Z,24.02
2022-08-26T16:26:41.755Z,24.07
2022-08-26T16:29:17.532Z,23.94
2022-08-26T16:31:50.624Z,24.27
2022-08-26T16:34:20.851Z,24.37
2022-08-26T16:36:51.126Z,24.69
2022-08-26T16:39:21.368Z,25.11
2022-08-26T16:41:51.592Z,24.98
2022-08-26T16:44:24.653Z,25.24
2022-08-26T16:47:00.909Z,25.36
2022-08-26T16:49:31.149Z,25.84
2022-08-26T16:52:01.376Z,25.64
2022-08-26T16:54:31.577Z,26.24
2022-08-26T16:57:01.752Z,26.27
2022-08-26T16:59:35.731Z,26.63
2022-08-26T17:02:06.028Z,27.24
2022-08-26T17:04:36.519Z,27.30
2022-08-26T17:07:07.009Z,27.22
2022-08-26T17:09:37.893Z,27.77
2022-08-26T17:12:11.866Z,27.86
2022-08-26T17:14:45.880Z,28.74
2022-08-26T17:17:16.151Z,29.90
2022-08-26T17:19:47.131Z,30.88
2022-08-26T17:22:18.011Z,30.73
2022-08-26T17:24:48.269Z,31.52
2022-08-26T17:27:21.037Z,31.80
2022-08-26T17:29:53.875Z,32.39
2022-08-26T17:32:24.291Z,33.16
2022-08-26T17:34:54.604Z,34.29
2022-08-26T17:37:24.847Z,34.95
2022-08-26T17:39:55.109Z,36.76
2022-08-26T17:42:31.521Z,37.39
2022-08-26T17:45:04.762Z,38.29
2022-08-26T17:47:35.653Z,38.52
2022-08-26T17:50:09.590Z,38.79
2022-08-26T17:52:41.053Z,39.14
2022-08-26T17:55:13.347Z,39.84
2022-08-26T17:57:44.063Z,40.09
2022-08-26T18:00:28.485Z,39.13
2022-08-26T18:02:59.254Z,39.04
2022-08-26T18:05:30.033Z,40.36
2022-08-26T18:08:00.272Z,39.68
2022-08-26T18:10:31.483Z,40.08
2022-08-26T18:13:01.962Z,39.85
2022-08-26T18:15:35.021Z,41.13
2022-08-26T18:18:05.307Z,41.10
2022-08-26T18:20:35.543Z,40.85
2022-08-26T18:23:08.856Z,40.36
2022-08-26T18:25:42.400Z,39.51
2022-08-26T18:28:12.985Z,38.63
2022-08-26T18:30:48.184Z,38.91
2022-08-26T18:33:19.456Z,39.42
2022-08-26T18:35:50.063Z,39.18
2022-08-26T18:38:20.273Z,39.42
2022-08-26T18:40:52.724Z,39.96
2022-08-26T18:43:23.554Z,39.79
2022-08-26T18:46:04.420Z,40.34
2022-08-26T18:48:34.872Z,40.70
2022-08-26T18:51:05.172Z,40.81
2022-08-26T18:53:37.106Z,41.15
2022-08-26T18:56:07.500Z,40.84
2022-08-26T18:58:37.767Z,41.51
2022-08-26T19:01:10.687Z,41.59
2022-08-26T19:03:41.015Z,41.96
2022-08-26T19:06:11.659Z,41.86
2022-08-26T19:08:44.626Z,42.39
2022-08-26T19:11:15.623Z,42.32
2022-08-26T19:13:47.441Z,42.33
2022-08-26T19:16:22.655Z,42.10
2022-08-26T19:18:53.537Z,41.86
2022-08-26T19:21:25.398Z,42.62
2022-08-26T19:23:59.395Z,42.43
2022-08-26T19:26:30.508Z,42.45
2022-08-26T19:29:02.099Z,42.56
2022-08-26T19:31:34.902Z,42.25
2022-08-26T19:34:07.218Z,42.78
2022-08-26T19:36:39.285Z,42.59
2022-08-26T19:39:13.624Z,42.37
2022-08-26T19:41:44.280Z,42.71
2022-08-26T19:44:37.637Z,42.42
2022-08-26T19:47:14.315Z,42.13
2022-08-26T19:49:45.019Z,41.98
2022-08-26T19:52:16.087Z,42.52
2022-08-26T19:54:46.335Z,42.55
2022-08-26T19:57:16.636Z,42.74
2022-08-26T19:59:47.249Z,42.71
2022-08-26T20:02:20.213Z,42.48
2022-08-26T20:04:50.614Z,42.04
2022-08-26T20:07:20.939Z,42.12
2022-08-26T20:09:52.176Z,42.18
2022-08-26T20:12:22.557Z,42.03
2022-08-26T20:14:52.789Z,42.11
2022-08-26T20:17:25.625Z,42.44
2022-08-26T20:20:14.724Z,42.37
2022-08-26T20:22:58.699Z,42.30
2022-08-26T20:25:29.433Z,42.44
2022-08-26T20:27:59.884Z,42.24
2022-08-26T20:30:30.188Z,42.55
2022-08-26T20:33:03.084Z,42.81
2022-08-26T20:35:33.824Z,42.59
2022-08-26T20:38:04.150Z,42.95
2022-08-26T20:40:35.711Z,42.71
2022-08-26T20:43:06.401Z,43.02
2022-08-26T20:45:37.607Z,42.79
2022-08-26T20:48:11.016Z,42.92
2022-08-26T20:50:41.906Z,43.30
2022-08-26T20:53:12.179Z,42.80
2022-08-26T20:55:42.529Z,42.79
2022-08-26T20:58:12.814Z,42.79
2022-08-26T21:00:43.084Z,42.89
2022-08-26T21:03:15.926Z,43.32
2022-08-26T21:05:46.692Z,43.21
2022-08-26T21:08:16.957Z,43.18
2022-08-26T21:10:48.766Z,42.88
2022-08-26T21:13:19.755Z,42.67
2022-08-26T21:15:50.176Z,43.38
2022-08-26T21:18:23.313Z,43.12
2022-08-26T21:20:53.845Z,43.03
2022-08-26T21:23:28.702Z,43.28
2022-08-26T21:25:59.547Z,42.90
2022-08-26T21:28:29.719Z,43.14
2022-08-26T21:31:00.343Z,43.04
2022-08-26T21:33:33.258Z,42.74
2022-08-26T21:36:03.512Z,42.97
2022-08-26T21:38:34.237Z,43.06
2022-08-26T21:41:07.086Z,43.06
2022-08-26T21:43:39.829Z,43.38
2022-08-26T21:46:15.204Z,43.31
2022-08-26T21:48:50.941Z,43.71
2022-08-26T21:51:23.989Z,43.76
2022-08-26T21:53:55.105Z,43.68
2022-08-26T21:56:31.697Z,43.52
2022-08-26T21:59:02.954Z,43.89
2022-08-26T22:01:35.144Z,43.88
2022-08-26T22:04:10.945Z,43.81
2022-08-26T22:06:46.033Z,44.09
2022-08-26T22:09:17.597Z,44.12
2022-08-26T22:11:48.851Z,44.14
2022-08-26T22:14:31.328Z,44.67
2022-08-26T22:17:05.395Z,43.94
2022-08-26T22:20:03.022Z,44.06
2022-08-26T22:22:41.687Z,44.14
2022-08-26T22:25:13.241Z,44.04
2022-08-26T22:27:43.425Z,44.09
2022-08-26T22:30:14.318Z,44.45
2022-08-26T22:32:45.790Z,44.09
2022-08-26T22:35:29.064Z,44.42
2022-08-26T22:38:01.096Z,44.41
2022-08-26T22:40:31.444Z,44.45
2022-08-26T22:43:02.337Z,44.62
2022-08-26T22:45:34.490Z,44.73
2022-08-26T22:48:06.749Z,44.46
2022-08-26T22:50:40.022Z,44.51
2022-08-26T22:53:10.233Z,44.88
2022-08-26T22:55:40.715Z,45.61
2022-08-26T22:58:14.755Z,45.80
2022-08-26T23:00:45.984Z,46.08
2022-08-26T23:03:19.510Z,45.92
2022-08-26T23:05:53.527Z,46.04
2022-08-26T23:08:26.115Z,45.16
2022-08-26T23:10:56.723Z,45.49
2022-08-26T23:13:28.209Z,45.32
2022-08-26T23:16:04.083Z,45.66
2022-08-26T23:18:40.836Z,45.28
2022-08-26T23:21:15.321Z,45.68
2022-08-26T23:23:53.031Z,45.73
2022-08-26T23:27:19.959Z,45.72
2022-08-26T23:29:50.251Z,45.82
2022-08-26T23:32:20.409Z,45.89
2022-08-26T23:34:59.743Z,45.76
2022-08-26T23:37:36.365Z,46.16
2022-08-26T23:40:13.969Z,46.23
2022-08-26T23:42:44.210Z,46.85
2022-08-26T23:45:18.609Z,47.06
2022-08-26T23:47:50.679Z,47.08
2022-08-26T23:50:22.146Z,47.02
2022-08-26T23:53:08.785Z,46.74
2022-08-26T23:55:40.316Z,46.76
2022-08-26T23:58:10.735Z,47.10
